Terminal Aerodrome Forecast
Issued by NWS Wilmington, OH

Current Version | Previous Version | Text Only | Print | Product List | Glossary Off
Versions: 1 2 3 4 5 6 7 8 9 10 11 12 13 14 15 16 17 18 19 20 21 22 23 24 25 26 27 28 29 30 31 32 33

000
FTUS41 KILN 220400 AAB
TAFCVG
TAF AMD
KCVG 220420Z 2204/2306 21007KT P6SM -TSRA BKN040CB OVC250
      TEMPO 2204/2208 34020G31KT 4SM -TSRA OVC025CB
     FM220800 21005KT P6SM VCSH BKN035 OVC200
     FM221500 25008KT P6SM -SHRA VCTS BKN035CB OVC150
     FM222000 27007KT P6SM BKN040
     FM230000 25004KT P6SM VCTS BKN040CB
     FM230300 24004KT P6SM SCT040 BKN080=

USA.gov is the U.S. government's official web portal to all federal, state and local government web resources and services.